createdAt,value
2018-06-21T00:00:48.583Z,99.90
2018-06-21T00:03:19.277Z,99.90
2018-06-21T00:05:49.928Z,99.90
2018-06-21T00:08:20.606Z,99.90
2018-06-21T00:10:51.718Z,99.90
2018-06-21T00:13:22.345Z,99.90
2018-06-21T00:15:52.992Z,99.90
2018-06-21T00:18:23.988Z,99.90
2018-06-21T00:20:54.703Z,99.90
2018-06-21T00:23:25.889Z,99.90
2018-06-21T00:25:56.580Z,99.90
2018-06-21T00:28:27.272Z,99.90
2018-06-21T00:30:57.867Z,99.90
2018-06-21T00:33:28.656Z,99.90
2018-06-21T00:35:59.338Z,99.90
2018-06-21T00:38:30.035Z,99.90
2018-06-21T00:41:00.602Z,99.90
2018-06-21T00:43:32.219Z,99.90
2018-06-21T00:46:04.215Z,99.90
2018-06-21T00:48:34.840Z,99.90
2018-06-21T00:51:05.434Z,99.90
2018-06-21T00:53:38.991Z,99.90
2018-06-21T00:58:51.627Z,99.90
2018-06-21T01:01:22.413Z,99.90
2018-06-21T01:03:53.162Z,99.90
2018-06-21T01:06:23.773Z,99.90
2018-06-21T01:08:54.966Z,99.90
2018-06-21T01:11:25.542Z,99.90
2018-06-21T01:13:56.212Z,99.90
2018-06-21T01:16:27.020Z,99.90
2018-06-21T01:18:57.983Z,99.90
2018-06-21T01:21:31.213Z,99.90
2018-06-21T01:24:01.975Z,99.90
2018-06-21T01:26:33.994Z,99.90
2018-06-21T01:29:05.230Z,99.90
2018-06-21T01:31:36.565Z,99.90
2018-06-21T01:34:07.780Z,99.90
2018-06-21T01:39:13.104Z,99.90
2018-06-21T01:41:43.991Z,99.90
2018-06-21T01:44:14.542Z,99.90
2018-06-21T01:46:45.099Z,99.90
2018-06-21T01:49:15.758Z,99.90
2018-06-21T01:51:46.408Z,99.90
2018-06-21T01:54:17.094Z,99.90
2018-06-21T01:56:47.672Z,99.90
2018-06-21T01:59:18.261Z,99.90
2018-06-21T02:01:48.839Z,99.90
2018-06-21T02:04:19.818Z,99.90
2018-06-21T02:06:50.556Z,99.90
2018-06-21T02:09:21.105Z,99.90
2018-06-21T02:11:52.547Z,99.90
2018-06-21T02:14:23.855Z,99.90
2018-06-21T02:16:54.597Z,99.90
2018-06-21T02:19:25.211Z,99.90
2018-06-21T02:21:55.910Z,99.90
2018-06-21T02:24:27.434Z,99.90
2018-06-21T02:26:57.968Z,99.90
2018-06-21T02:29:28.598Z,99.90
2018-06-21T02:31:59.573Z,99.90
2018-06-21T02:37:00.452Z,99.90
2018-06-21T02:39:30.954Z,99.90
2018-06-21T02:42:01.675Z,99.90
2018-06-21T02:47:02.903Z,99.90
2018-06-21T02:49:33.493Z,99.90
2018-06-21T02:54:35.295Z,99.90
2018-06-21T02:57:05.820Z,99.90
2018-06-21T02:59:36.582Z,99.90
2018-06-21T03:02:07.320Z,99.90
2018-06-21T03:04:38.098Z,99.90
2018-06-21T03:07:08.830Z,99.90
2018-06-21T03:09:40.713Z,99.90
2018-06-21T03:12:16.537Z,99.90
2018-06-21T03:14:47.527Z,99.90
2018-06-21T03:17:18.172Z,99.90
2018-06-21T03:19:48.755Z,99.90
2018-06-21T03:22:19.511Z,99.90
2018-06-21T03:27:38.436Z,99.90
2018-06-21T03:33:26.711Z,99.90
2018-06-21T03:35:57.415Z,99.90
2018-06-21T03:38:27.862Z,99.90
2018-06-21T03:40:59.587Z,99.90
2018-06-21T03:43:30.187Z,99.90
2018-06-21T03:46:00.859Z,99.90
2018-06-21T03:48:32.475Z,99.90
2018-06-21T03:51:03.040Z,99.90
2018-06-21T03:53:34.712Z,99.90
2018-06-21T03:56:05.502Z,99.90
2018-06-21T03:58:36.850Z,99.90
2018-06-21T04:01:07.374Z,99.90
2018-06-21T04:03:37.847Z,99.90
2018-06-21T04:06:08.371Z,99.90
2018-06-21T04:08:38.916Z,99.90
2018-06-21T04:11:09.479Z,99.90
2018-06-21T04:13:40.096Z,99.90
2018-06-21T04:16:10.589Z,99.90
2018-06-21T04:18:41.140Z,99.90
2018-06-21T04:21:11.596Z,99.90
2018-06-21T04:28:43.319Z,99.90
2018-06-21T04:31:14.095Z,99.90
2018-06-21T04:33:45.286Z,99.90
2018-06-21T04:36:15.756Z,99.90
2018-06-21T04:38:46.309Z,99.90
2018-06-21T04:41:17.378Z,99.90
2018-06-21T04:43:47.893Z,99.90
2018-06-21T04:46:18.425Z,99.90
2018-06-21T04:48:49.604Z,99.90
2018-06-21T04:51:23.601Z,99.90
2018-06-21T04:57:34.128Z,99.90
2018-06-21T05:00:30.624Z,99.90
2018-06-21T05:04:02.109Z,99.90
2018-06-21T05:11:25.742Z,99.90
2018-06-21T05:13:56.280Z,98.40
2018-06-21T05:18:57.005Z,96.60
2018-06-21T05:21:27.694Z,96.00
2018-06-21T05:23:58.163Z,95.60
2018-06-21T05:26:28.713Z,94.70
2018-06-21T05:28:59.781Z,94.30
2018-06-21T05:31:30.477Z,93.70
2018-06-21T05:34:01.307Z,92.90
2018-06-21T05:36:31.833Z,92.40
2018-06-21T05:39:02.417Z,91.90
2018-06-21T05:41:32.920Z,91.60
2018-06-21T05:44:03.575Z,91.70
2018-06-21T05:46:34.189Z,90.70
2018-06-21T05:51:34.814Z,91.20
2018-06-21T05:54:05.325Z,91.30
2018-06-21T05:56:35.942Z,90.80
2018-06-21T05:59:06.547Z,90.00
2018-06-21T06:01:37.150Z,89.90
2018-06-21T06:04:07.759Z,88.80
2018-06-21T06:06:38.292Z,88.80
2018-06-21T06:09:11.061Z,88.40
2018-06-21T06:11:41.572Z,89.00
2018-06-21T06:14:12.146Z,89.00
2018-06-21T06:16:42.621Z,89.10
2018-06-21T06:19:13.128Z,88.00
2018-06-21T06:21:43.620Z,88.90
2018-06-21T06:24:14.149Z,87.50
2018-06-21T06:26:44.778Z,88.10
2018-06-21T06:29:15.333Z,84.70
2018-06-21T06:31:45.825Z,85.30
2018-06-21T06:34:16.298Z,84.80
2018-06-21T06:39:17.969Z,84.10
2018-06-21T06:41:50.227Z,83.70
2018-06-21T06:44:20.804Z,81.50
2018-06-21T06:46:51.315Z,82.40
2018-06-21T06:49:22.126Z,79.00
2018-06-21T06:51:52.530Z,79.60
2018-06-21T06:54:23.104Z,79.10
2018-06-21T06:56:53.615Z,79.50
2018-06-21T06:59:24.023Z,79.40
2018-06-21T07:01:54.461Z,77.20
2018-06-21T07:04:25.153Z,76.40
2018-06-21T07:06:55.900Z,76.90
2018-06-21T07:09:27.383Z,77.70
2018-06-21T07:11:57.850Z,77.40
2018-06-21T07:14:28.545Z,76.90
2018-06-21T07:16:59.572Z,74.20
2018-06-21T07:19:30.244Z,74.80
2018-06-21T07:22:01.181Z,74.20
2018-06-21T07:24:31.559Z,72.20
2018-06-21T07:27:02.093Z,72.70
2018-06-21T07:29:32.600Z,72.00
2018-06-21T07:32:03.068Z,71.90
2018-06-21T07:34:33.509Z,72.40
2018-06-21T07:39:33.896Z,71.30
2018-06-21T07:42:04.469Z,71.70
2018-06-21T07:44:34.982Z,72.00
2018-06-21T07:47:05.398Z,70.40
2018-06-21T07:49:37.556Z,69.30
2018-06-21T07:52:08.049Z,70.40
2018-06-21T07:54:39.067Z,68.10
2018-06-21T07:57:09.487Z,68.10
2018-06-21T07:59:39.942Z,67.90
2018-06-21T08:02:10.874Z,67.50
2018-06-21T08:04:42.237Z,67.50
2018-06-21T08:07:12.678Z,68.20
2018-06-21T08:09:43.021Z,68.40
2018-06-21T08:12:13.448Z,69.00
2018-06-21T08:14:43.972Z,68.20
2018-06-21T08:17:14.347Z,67.30
2018-06-21T08:19:44.758Z,68.10
2018-06-21T08:22:15.172Z,70.50
2018-06-21T08:24:45.637Z,71.00
2018-06-21T08:27:16.028Z,72.30
2018-06-21T08:29:46.488Z,74.30
2018-06-21T08:32:16.893Z,74.10
2018-06-21T08:34:47.321Z,72.10
2018-06-21T08:37:17.787Z,71.20
2018-06-21T08:39:48.213Z,73.50
2018-06-21T08:42:18.759Z,72.60
2018-06-21T08:44:49.246Z,71.00
2018-06-21T08:47:19.713Z,70.40
2018-06-21T08:49:50.090Z,68.90
2018-06-21T08:52:20.654Z,67.50
2018-06-21T08:54:50.995Z,66.30
2018-06-21T08:57:21.489Z,63.50
2018-06-21T08:59:51.960Z,65.50
2018-06-21T09:02:22.463Z,64.10
2018-06-21T09:04:52.965Z,64.60
2018-06-21T09:07:23.331Z,62.80
2018-06-21T09:09:53.714Z,63.60
2018-06-21T09:12:24.212Z,65.20
2018-06-21T09:14:54.661Z,64.80
2018-06-21T09:17:25.172Z,66.60
2018-06-21T09:19:55.628Z,67.00
2018-06-21T09:22:26.064Z,68.40
2018-06-21T09:24:56.932Z,70.50
2018-06-21T09:27:27.484Z,68.60
2018-06-21T09:29:58.335Z,67.50
2018-06-21T09:32:30.365Z,64.90
2018-06-21T09:35:00.893Z,66.30
2018-06-21T09:37:36.546Z,64.60
2018-06-21T09:40:12.464Z,66.60
2018-06-21T09:42:48.066Z,67.40
2018-06-21T09:45:23.670Z,67.60
2018-06-21T09:47:59.414Z,67.90
2018-06-21T09:50:29.833Z,68.00
2018-06-21T09:53:00.380Z,68.70
2018-06-21T09:55:30.897Z,69.20
2018-06-21T09:58:01.457Z,68.40
2018-06-21T10:00:37.121Z,68.30
2018-06-21T10:03:07.634Z,68.20
2018-06-21T10:05:38.788Z,67.20
2018-06-21T10:08:09.221Z,68.20
2018-06-21T10:10:39.667Z,66.80
2018-06-21T10:13:10.151Z,67.00
2018-06-21T10:15:40.781Z,67.90
2018-06-21T10:18:11.316Z,66.70
2018-06-21T10:20:41.805Z,66.80
2018-06-21T10:23:12.444Z,66.90
2018-06-21T10:25:42.884Z,66.40
2018-06-21T10:28:13.904Z,65.80
2018-06-21T10:30:44.369Z,64.90
2018-06-21T10:33:14.801Z,63.90
2018-06-21T10:35:45.322Z,64.20
2018-06-21T10:38:15.758Z,64.50
2018-06-21T10:40:50.650Z,65.00
2018-06-21T10:43:21.533Z,64.40
2018-06-21T10:45:52.049Z,65.20
2018-06-21T10:48:22.592Z,65.10
2018-06-21T10:50:53.056Z,64.60
2018-06-21T10:53:23.416Z,65.60
2018-06-21T10:55:53.994Z,66.60
2018-06-21T10:58:25.477Z,65.60
2018-06-21T11:00:55.965Z,66.00
2018-06-21T11:03:26.997Z,66.30
2018-06-21T11:05:59.506Z,67.80
2018-06-21T11:08:29.993Z,68.10
2018-06-21T11:11:00.522Z,68.40
2018-06-21T11:13:30.965Z,69.70
2018-06-21T11:16:01.399Z,70.30
2018-06-21T11:18:31.888Z,70.50
2018-06-21T11:21:02.573Z,70.90
2018-06-21T11:23:33.860Z,72.80
2018-06-21T11:26:04.317Z,70.00
2018-06-21T11:28:34.863Z,70.20
2018-06-21T11:31:05.606Z,70.50
2018-06-21T11:33:36.091Z,70.10
2018-06-21T11:36:06.754Z,70.10
2018-06-21T11:38:37.334Z,71.70
2018-06-21T11:41:07.882Z,67.60
2018-06-21T11:43:38.388Z,66.40
2018-06-21T11:46:08.769Z,66.00
2018-06-21T11:48:39.281Z,66.80
2018-06-21T11:51:09.801Z,67.10
2018-06-21T11:53:40.321Z,67.70
2018-06-21T11:56:10.763Z,66.90
2018-06-21T11:58:41.321Z,66.80
2018-06-21T12:01:11.717Z,64.90
2018-06-21T12:03:43.137Z,64.60
2018-06-21T12:06:13.789Z,63.10
2018-06-21T12:08:44.289Z,62.00
2018-06-21T12:11:14.913Z,63.60
2018-06-21T12:13:45.440Z,64.60
2018-06-21T12:16:15.924Z,62.90
2018-06-21T12:18:46.455Z,63.40
2018-06-21T12:21:16.980Z,64.10
2018-06-21T12:23:47.610Z,65.00
2018-06-21T12:26:19.199Z,65.60
2018-06-21T12:28:49.787Z,63.50
2018-06-21T12:31:20.214Z,64.60
2018-06-21T12:33:50.765Z,65.30
2018-06-21T12:36:21.436Z,66.00
2018-06-21T12:38:52.625Z,65.50
2018-06-21T12:41:23.102Z,65.70
2018-06-21T12:43:53.597Z,65.00
2018-06-21T12:46:24.043Z,64.40
2018-06-21T12:48:54.518Z,65.50
2018-06-21T12:51:25.279Z,66.40
2018-06-21T12:53:55.637Z,67.30
2018-06-21T12:56:26.076Z,66.90
2018-06-21T12:58:56.516Z,66.50
2018-06-21T13:01:26.972Z,67.50
2018-06-21T13:03:57.467Z,66.00
2018-06-21T13:06:27.874Z,64.10
2018-06-21T13:09:15.113Z,64.40
2018-06-21T13:13:05.936Z,64.80
2018-06-21T13:15:36.416Z,65.10
2018-06-21T13:18:07.001Z,68.10
2018-06-21T13:20:37.617Z,69.10
2018-06-21T13:23:07.992Z,68.60
2018-06-21T13:25:39.351Z,67.00
2018-06-21T13:28:09.759Z,65.20
2018-06-21T13:30:40.807Z,65.40
2018-06-21T13:33:11.443Z,64.40
2018-06-21T13:35:42.010Z,65.00
2018-06-21T13:38:12.525Z,66.50
2018-06-21T13:40:43.051Z,65.20
2018-06-21T13:43:13.553Z,65.00
2018-06-21T13:45:43.943Z,65.70
2018-06-21T13:48:14.384Z,64.60
2018-06-21T13:50:44.892Z,64.70
2018-06-21T13:53:15.770Z,64.90
2018-06-21T13:55:46.252Z,65.40
2018-06-21T13:58:16.839Z,67.00
2018-06-21T14:00:47.426Z,67.80
2018-06-21T14:03:18.285Z,68.30
2018-06-21T14:08:19.375Z,72.70
2018-06-21T14:10:49.709Z,75.90
2018-06-21T14:13:20.502Z,77.50
2018-06-21T14:15:51.232Z,78.90
2018-06-21T14:20:52.029Z,81.80
2018-06-21T14:23:22.536Z,82.20
2018-06-21T14:25:53.079Z,82.70
2018-06-21T14:28:23.655Z,83.10
2018-06-21T14:30:54.153Z,83.70
2018-06-21T14:33:24.650Z,83.80
2018-06-21T14:35:55.148Z,84.60
2018-06-21T14:38:25.805Z,84.40
2018-06-21T14:40:56.612Z,84.40
2018-06-21T14:43:27.887Z,85.70
2018-06-21T14:48:28.426Z,86.00
2018-06-21T14:50:59.093Z,86.50
2018-06-21T14:53:29.653Z,86.20
2018-06-21T14:56:00.308Z,87.10
2018-06-21T14:58:30.935Z,87.00
2018-06-21T15:01:01.693Z,88.10
2018-06-21T15:03:32.260Z,87.80
2018-06-21T15:06:02.832Z,88.10
2018-06-21T15:08:34.157Z,88.00
2018-06-21T15:11:04.960Z,88.70
2018-06-21T15:13:35.629Z,88.90
2018-06-21T15:16:06.240Z,89.00
2018-06-21T15:18:36.766Z,88.40
2018-06-21T15:21:08.054Z,89.20
2018-06-21T15:23:38.479Z,88.60
2018-06-21T15:26:09.081Z,89.40
2018-06-21T15:28:39.824Z,89.20
2018-06-21T15:31:11.064Z,89.00
2018-06-21T15:33:41.652Z,89.30
2018-06-21T15:38:42.550Z,89.10
2018-06-21T15:41:14.069Z,89.10
2018-06-21T15:43:44.589Z,89.60
2018-06-21T15:46:15.213Z,88.30
2018-06-21T15:48:45.991Z,88.50
2018-06-21T15:51:20.359Z,89.00
2018-06-21T15:53:51.914Z,88.80
2018-06-21T15:56:22.530Z,89.20
2018-06-21T15:58:53.114Z,90.00
2018-06-21T16:01:24.064Z,89.10
2018-06-21T16:03:54.681Z,88.90
2018-06-21T16:06:25.230Z,89.30
2018-06-21T16:08:55.840Z,88.80
2018-06-21T16:11:26.480Z,89.20
2018-06-21T16:13:57.015Z,89.10
2018-06-21T16:16:27.425Z,89.80
2018-06-21T16:18:57.943Z,88.90
2018-06-21T16:21:28.385Z,88.80
2018-06-21T16:23:58.829Z,88.20
2018-06-21T16:26:29.331Z,88.20
2018-06-21T16:29:01.330Z,87.30
2018-06-21T16:31:31.716Z,90.10
2018-06-21T16:34:02.171Z,91.70
2018-06-21T16:36:32.622Z,91.30
2018-06-21T16:39:03.021Z,91.70
2018-06-21T16:41:33.430Z,92.50
2018-06-21T16:44:03.911Z,91.40
2018-06-21T16:46:34.466Z,91.60
2018-06-21T16:49:04.925Z,91.30
2018-06-21T16:51:35.403Z,92.10
2018-06-21T16:54:05.924Z,91.90
2018-06-21T16:56:36.413Z,92.00
2018-06-21T16:59:06.886Z,91.80
2018-06-21T17:01:37.443Z,91.70
2018-06-21T17:04:07.918Z,88.20
2018-06-21T17:06:38.279Z,88.50
2018-06-21T17:09:10.001Z,86.90
2018-06-21T17:11:41.596Z,82.80
2018-06-21T17:14:11.972Z,80.90
2018-06-21T17:16:42.361Z,78.50
2018-06-21T17:19:13.391Z,77.70
2018-06-21T17:21:43.962Z,77.40
2018-06-21T17:24:14.359Z,75.40
2018-06-21T17:29:14.864Z,74.40
2018-06-21T17:31:45.456Z,73.20
2018-06-21T17:34:15.946Z,73.00
2018-06-21T17:36:46.671Z,73.70
2018-06-21T17:39:16.888Z,73.20
2018-06-21T17:41:47.380Z,73.20
2018-06-21T17:44:17.773Z,73.30
2018-06-21T17:46:48.170Z,72.80
2018-06-21T17:49:18.614Z,72.60
2018-06-21T17:51:49.961Z,71.90
2018-06-21T17:54:20.406Z,71.00
2018-06-21T17:56:50.870Z,70.20
2018-06-21T17:59:21.635Z,69.80
2018-06-21T18:01:52.123Z,68.90
2018-06-21T18:04:22.602Z,68.20
2018-06-21T18:06:53.034Z,67.60
2018-06-21T18:09:23.492Z,66.60
2018-06-21T18:11:53.991Z,66.50
2018-06-21T18:14:24.382Z,66.80
2018-06-21T18:16:55.034Z,65.00
2018-06-21T18:19:25.483Z,61.40
2018-06-21T18:21:55.899Z,61.10
2018-06-21T18:24:26.418Z,59.50
2018-06-21T18:26:56.920Z,59.10
2018-06-21T18:29:27.513Z,59.80
2018-06-21T18:31:58.246Z,58.90
2018-06-21T18:34:28.722Z,58.60
2018-06-21T18:36:59.240Z,58.00
2018-06-21T18:39:29.712Z,57.20
2018-06-21T18:42:00.245Z,57.00
2018-06-21T18:44:30.786Z,57.40
2018-06-21T18:47:01.384Z,57.40
2018-06-21T18:49:31.875Z,58.30
2018-06-21T18:52:02.480Z,58.60
2018-06-21T18:54:32.944Z,58.00
2018-06-21T18:57:03.745Z,57.60
2018-06-21T18:59:34.161Z,57.60
2018-06-21T19:02:05.603Z,57.10
2018-06-21T19:04:36.633Z,57.80
2018-06-21T19:07:13.063Z,57.60
2018-06-21T19:09:49.180Z,57.60
2018-06-21T19:14:51.009Z,58.40
2018-06-21T19:17:21.736Z,58.30
2018-06-21T19:19:52.380Z,57.60
2018-06-21T19:22:23.137Z,58.10
2018-06-21T19:24:54.617Z,58.20
2018-06-21T19:27:25.036Z,57.80
2018-06-21T19:29:55.823Z,57.80
2018-06-21T19:32:26.281Z,58.20
2018-06-21T19:34:56.759Z,58.70
2018-06-21T19:37:27.243Z,58.40
2018-06-21T19:39:57.658Z,59.00
2018-06-21T19:42:28.027Z,59.10
2018-06-21T19:44:58.483Z,59.60
2018-06-21T19:47:29.258Z,59.70
2018-06-21T19:49:59.709Z,59.50
2018-06-21T19:52:30.190Z,59.10
2018-06-21T19:55:00.617Z,59.40
2018-06-21T19:57:31.103Z,59.50
2018-06-21T20:00:02.860Z,59.30
2018-06-21T20:02:38.397Z,59.10
2018-06-21T20:05:08.906Z,59.40
2018-06-21T20:07:39.384Z,59.20
2018-06-21T20:10:09.908Z,60.10
2018-06-21T20:12:40.653Z,59.30
2018-06-21T20:15:11.055Z,59.60
2018-06-21T20:17:41.517Z,60.30
2018-06-21T20:20:18.329Z,59.70
2018-06-21T20:22:50.304Z,59.30
2018-06-21T20:25:21.097Z,59.50
2018-06-21T20:27:51.834Z,59.90
2018-06-21T20:30:22.578Z,60.30
2018-06-21T20:32:53.106Z,60.10
2018-06-21T20:35:23.797Z,60.20
2018-06-21T20:37:54.302Z,59.90
2018-06-21T20:40:24.769Z,60.70
2018-06-21T20:42:55.380Z,60.50
2018-06-21T20:45:25.845Z,60.50
2018-06-21T20:47:57.041Z,60.70
2018-06-21T20:50:27.865Z,60.60
2018-06-21T20:52:58.583Z,60.80
2018-06-21T20:55:29.461Z,61.40
2018-06-21T20:58:00.040Z,60.90
2018-06-21T21:00:30.703Z,61.10
2018-06-21T21:03:01.901Z,61.30
2018-06-21T21:05:32.925Z,61.70
2018-06-21T21:08:03.363Z,61.50
2018-06-21T21:10:33.718Z,62.20
2018-06-21T21:13:04.173Z,62.20
2018-06-21T21:15:35.115Z,62.30
2018-06-21T21:18:05.669Z,63.00
2018-06-21T21:20:36.671Z,63.10
2018-06-21T21:25:37.228Z,64.20
2018-06-21T21:28:07.622Z,63.30
2018-06-21T21:30:38.366Z,64.10
2018-06-21T21:33:08.794Z,64.20
2018-06-21T21:35:39.192Z,63.90
2018-06-21T21:38:09.611Z,64.00
2018-06-21T21:40:40.038Z,63.80
2018-06-21T21:43:10.654Z,64.10
2018-06-21T21:45:41.213Z,64.10
2018-06-21T21:48:11.612Z,63.70
2018-06-21T21:50:42.100Z,63.80
2018-06-21T21:53:12.432Z,63.40
2018-06-21T21:55:42.937Z,63.30
2018-06-21T21:58:13.457Z,62.90
2018-06-21T22:00:47.563Z,63.10
2018-06-21T22:03:18.144Z,63.20
2018-06-21T22:05:48.568Z,63.10
2018-06-21T22:08:19.056Z,63.30
2018-06-21T22:10:49.786Z,63.50
2018-06-21T22:13:20.256Z,63.90
2018-06-21T22:15:50.676Z,64.00
2018-06-21T22:18:21.724Z,64.00
2018-06-21T22:20:52.211Z,64.00
2018-06-21T22:23:23.004Z,63.30
2018-06-21T22:25:53.392Z,63.80
2018-06-21T22:28:23.798Z,64.00
2018-06-21T22:30:54.165Z,63.80
2018-06-21T22:33:24.593Z,63.70
2018-06-21T22:35:55.044Z,63.70
2018-06-21T22:38:25.531Z,63.60
2018-06-21T22:40:56.433Z,63.60
2018-06-21T22:43:26.834Z,63.60
2018-06-21T22:45:57.265Z,63.60
2018-06-21T22:48:28.552Z,64.10
2018-06-21T22:50:59.043Z,64.20
2018-06-21T22:53:29.442Z,64.10
2018-06-21T22:55:59.811Z,64.70
2018-06-21T22:58:30.188Z,64.80
2018-06-21T23:01:00.631Z,64.90
2018-06-21T23:03:31.927Z,65.30
2018-06-21T23:06:02.476Z,65.60
2018-06-21T23:08:32.871Z,65.70
2018-06-21T23:11:03.402Z,65.60
2018-06-21T23:13:34.097Z,66.00
2018-06-21T23:16:04.641Z,66.20
2018-06-21T23:18:52.108Z,66.30
2018-06-21T23:21:22.471Z,66.50
2018-06-21T23:23:53.142Z,66.60
2018-06-21T23:26:23.561Z,66.90
2018-06-21T23:28:53.998Z,67.00
2018-06-21T23:31:24.453Z,67.00
2018-06-21T23:33:55.056Z,67.10
2018-06-21T23:36:26.060Z,67.20
2018-06-21T23:41:26.789Z,67.30
2018-06-21T23:43:57.263Z,67.90
2018-06-21T23:46:27.843Z,68.20
2018-06-21T23:48:58.311Z,68.30
2018-06-21T23:51:28.877Z,68.70
2018-06-21T23:53:59.367Z,68.80
2018-06-21T23:56:29.922Z,69.30
2018-06-21T23:59:00.382Z,69.90
